createdAt,value
2022-11-20T00:00:13.813Z,99.99
2022-11-20T00:01:14.027Z,99.99
2022-11-20T00:02:14.237Z,99.99
2022-11-20T00:03:14.402Z,99.99
2022-11-20T00:04:14.562Z,99.99
2022-11-20T00:05:14.742Z,99.99
2022-11-20T00:06:14.924Z,99.99
2022-11-20T00:07:15.187Z,99.99
2022-11-20T00:08:15.233Z,99.99
2022-11-20T00:09:15.411Z,99.99
2022-11-20T00:10:15.558Z,99.99
2022-11-20T00:11:16.537Z,99.99
2022-11-20T00:12:15.842Z,99.99
2022-11-20T00:13:16.971Z,99.99
2022-11-20T00:14:16.110Z,99.99
2022-11-20T00:15:16.273Z,99.99
2022-11-20T00:16:16.494Z,99.99
2022-11-20T00:17:16.547Z,99.99
2022-11-20T00:18:16.700Z,99.99
2022-11-20T00:19:16.877Z,99.99
2022-11-20T00:20:17.036Z,99.99
2022-11-20T00:21:17.237Z,99.99
2022-11-20T00:22:17.399Z,99.99
2022-11-20T00:23:17.577Z,99.99
2022-11-20T00:24:17.733Z,99.99
2022-11-20T00:25:17.914Z,99.99
2022-11-20T00:26:18.138Z,99.99
2022-11-20T00:27:18.213Z,99.99
2022-11-20T00:28:18.382Z,99.99
2022-11-20T00:29:18.753Z,99.99
2022-11-20T00:30:18.708Z,99.99
2022-11-20T00:31:18.874Z,99.99
2022-11-20T00:32:19.035Z,99.99
2022-11-20T00:33:19.234Z,99.99
2022-11-20T00:34:19.403Z,99.99
2022-11-20T00:35:19.580Z,99.99
2022-11-20T00:36:19.752Z,99.99
2022-11-20T00:37:19.920Z,99.99
2022-11-20T00:38:20.161Z,99.99
2022-11-20T00:39:20.491Z,99.99
2022-11-20T00:40:20.339Z,99.99
2022-11-20T00:41:20.541Z,99.99
2022-11-20T00:42:20.696Z,99.99
2022-11-20T00:43:20.831Z,99.99
2022-11-20T00:44:21.007Z,99.99
2022-11-20T00:45:21.176Z,99.99
2022-11-20T00:46:21.840Z,99.99
2022-11-20T00:47:21.454Z,99.99
2022-11-20T00:48:21.623Z,99.99
2022-11-20T00:49:21.920Z,99.99
2022-11-20T00:50:21.873Z,99.99
2022-11-20T00:51:22.057Z,99.99
2022-11-20T00:52:22.247Z,99.99
2022-11-20T00:53:22.440Z,99.99
2022-11-20T00:54:22.729Z,99.99
2022-11-20T00:55:22.786Z,99.99
2022-11-20T00:56:22.967Z,99.99
2022-11-20T00:57:23.125Z,99.99
2022-11-20T00:58:23.292Z,99.99
2022-11-20T00:59:23.690Z,99.99
2022-11-20T01:00:23.555Z,99.99
2022-11-20T01:01:23.789Z,99.99
2022-11-20T01:02:23.830Z,99.99
2022-11-20T01:03:27.062Z,99.99
2022-11-20T01:04:24.188Z,99.99
2022-11-20T01:05:24.370Z,99.99
2022-11-20T01:06:24.527Z,99.99
2022-11-20T01:07:24.751Z,99.99
2022-11-20T01:08:24.822Z,99.99
2022-11-20T01:09:24.988Z,99.99
2022-11-20T01:10:25.140Z,99.99
2022-11-20T01:11:25.322Z,99.99
2022-11-20T01:12:25.519Z,99.99
2022-11-20T01:13:25.949Z,99.99
2022-11-20T01:14:25.873Z,99.99
2022-11-20T01:15:26.047Z,99.99
2022-11-20T01:16:26.208Z,99.99
2022-11-20T01:17:26.423Z,99.99
2022-11-20T01:18:26.534Z,99.99
2022-11-20T01:19:26.601Z,99.99
2022-11-20T01:20:26.774Z,99.99
2022-11-20T01:21:26.930Z,99.99
2022-11-20T01:22:27.116Z,99.99
2022-11-20T01:23:27.296Z,99.99
2022-11-20T01:24:27.465Z,99.99
2022-11-20T01:25:27.621Z,99.99
2022-11-20T01:26:27.788Z,99.99
2022-11-20T01:27:27.953Z,99.99
2022-11-20T01:28:28.104Z,99.99
2022-11-20T01:29:28.260Z,99.99
2022-11-20T01:30:28.425Z,99.98
2022-11-20T01:31:28.591Z,99.82
2022-11-20T01:32:28.766Z,99.77
2022-11-20T01:33:28.923Z,99.88
2022-11-20T01:34:29.097Z,99.98
2022-11-20T01:35:29.260Z,99.98
2022-11-20T01:36:29.432Z,99.99
2022-11-20T01:37:29.627Z,99.98
2022-11-20T01:38:29.793Z,99.77
2022-11-20T01:39:29.956Z,99.66
2022-11-20T01:40:30.125Z,99.66
2022-11-20T01:41:30.279Z,99.77
2022-11-20T01:42:31.448Z,99.88
2022-11-20T01:43:30.629Z,99.77
2022-11-20T01:44:30.800Z,99.66
2022-11-20T01:45:30.962Z,99.77
2022-11-20T01:46:31.117Z,99.66
2022-11-20T01:47:31.305Z,99.77
2022-11-20T01:48:31.488Z,99.56
2022-11-20T01:49:31.642Z,99.46
2022-11-20T01:50:31.813Z,99.61
2022-11-20T01:51:31.972Z,99.77
2022-11-20T01:52:32.167Z,99.82
2022-11-20T01:53:32.318Z,99.71
2022-11-20T01:54:32.487Z,99.82
2022-11-20T01:55:32.641Z,99.82
2022-11-20T01:56:32.812Z,99.92
2022-11-20T01:57:33.011Z,99.92
2022-11-20T01:58:33.165Z,99.92
2022-11-20T01:59:33.325Z,99.82
2022-11-20T02:00:33.504Z,99.82
2022-11-20T02:01:33.738Z,99.71
2022-11-20T02:02:33.813Z,99.82
2022-11-20T02:03:34.000Z,99.92
2022-11-20T02:04:34.167Z,99.92
2022-11-20T02:05:34.327Z,99.61
2022-11-20T02:06:34.540Z,99.61
2022-11-20T02:07:34.655Z,99.61
2022-11-20T02:08:34.877Z,99.92
2022-11-20T02:09:34.937Z,99.82
2022-11-20T02:10:35.105Z,99.92
2022-11-20T02:11:35.345Z,99.61
2022-11-20T02:12:35.420Z,99.51
2022-11-20T02:13:35.604Z,99.29
2022-11-20T02:14:35.738Z,99.29
2022-11-20T02:15:35.897Z,99.19
2022-11-20T02:16:36.066Z,99.40
2022-11-20T02:17:36.228Z,99.51
2022-11-20T02:18:36.386Z,99.51
2022-11-20T02:19:36.542Z,99.44
2022-11-20T02:20:36.715Z,99.40
2022-11-20T02:21:36.869Z,99.40
2022-11-20T02:22:37.052Z,99.34
2022-11-20T02:23:37.231Z,99.34
2022-11-20T02:24:37.400Z,99.24
2022-11-20T02:25:37.572Z,99.13
2022-11-20T02:26:37.755Z,99.24
2022-11-20T02:27:37.921Z,99.34
2022-11-20T02:28:38.131Z,99.55
2022-11-20T02:29:38.259Z,99.55
2022-11-20T02:30:38.417Z,99.44
2022-11-20T02:31:38.584Z,99.24
2022-11-20T02:32:38.820Z,99.24
2022-11-20T02:33:38.884Z,99.02
2022-11-20T02:34:39.047Z,99.02
2022-11-20T02:35:39.206Z,99.07
2022-11-20T02:36:39.376Z,99.07
2022-11-20T02:37:39.553Z,98.97
2022-11-20T02:38:39.727Z,98.97
2022-11-20T02:39:39.887Z,98.97
2022-11-20T02:40:40.127Z,99.07
2022-11-20T02:41:40.265Z,99.18
2022-11-20T02:42:40.444Z,99.07
2022-11-20T02:43:40.604Z,98.97
2022-11-20T02:44:40.783Z,99.07
2022-11-20T02:45:40.944Z,99.07
2022-11-20T02:46:41.176Z,98.97
2022-11-20T02:47:41.265Z,99.18
2022-11-20T02:48:41.473Z,99.07
2022-11-20T02:49:41.647Z,99.28
2022-11-20T02:50:41.829Z,99.28
2022-11-20T02:51:41.997Z,99.28
2022-11-20T02:52:42.187Z,99.28
2022-11-20T02:53:42.356Z,99.38
2022-11-20T02:54:42.697Z,99.28
2022-11-20T02:55:42.728Z,99.18
2022-11-20T02:56:42.918Z,99.18
2022-11-20T02:57:43.595Z,99.18
2022-11-20T02:58:43.219Z,99.28
2022-11-20T02:59:43.409Z,99.18
2022-11-20T03:00:43.591Z,99.18
2022-11-20T03:01:43.783Z,99.28
2022-11-20T03:02:44.122Z,99.38
2022-11-20T03:03:44.068Z,99.18
2022-11-20T03:04:44.241Z,99.28
2022-11-20T03:05:44.407Z,99.28
2022-11-20T03:06:44.587Z,99.18
2022-11-20T03:07:44.809Z,99.07
2022-11-20T03:08:44.958Z,99.28
2022-11-20T03:09:45.126Z,99.28
2022-11-20T03:10:45.305Z,99.38
2022-11-20T03:11:45.493Z,99.28
2022-11-20T03:12:45.683Z,99.28
2022-11-20T03:13:45.856Z,98.97
2022-11-20T03:14:50.197Z,98.75
2022-11-20T03:15:47.144Z,98.80
2022-11-20T03:16:46.317Z,98.69
2022-11-20T03:17:46.474Z,98.80
2022-11-20T03:18:46.649Z,99.07
2022-11-20T03:19:46.845Z,98.97
2022-11-20T03:20:47.040Z,98.91
2022-11-20T03:21:47.208Z,98.91
2022-11-20T03:22:57.129Z,99.01
2022-11-20T03:23:47.563Z,99.11
2022-11-20T03:24:47.750Z,99.28
2022-11-20T03:25:47.916Z,99.18
2022-11-20T03:26:48.100Z,99.22
2022-11-20T03:27:48.275Z,99.11
2022-11-20T03:28:48.455Z,99.01
2022-11-20T03:29:48.639Z,99.01
2022-11-20T03:30:48.839Z,99.11
2022-11-20T03:31:49.034Z,99.01
2022-11-20T03:32:49.228Z,99.22
2022-11-20T03:33:49.418Z,99.22
2022-11-20T03:34:49.593Z,99.22
2022-11-20T03:35:49.764Z,99.11
2022-11-20T03:36:49.958Z,99.01
2022-11-20T03:37:50.135Z,99.22
2022-11-20T03:38:50.329Z,99.32
2022-11-20T03:39:50.502Z,99.32
2022-11-20T03:40:50.692Z,99.32
2022-11-20T03:41:50.877Z,99.32
2022-11-20T03:42:51.053Z,99.32
2022-11-20T03:43:51.240Z,99.43
2022-11-20T03:44:51.427Z,99.22
2022-11-20T03:45:51.602Z,99.32
2022-11-20T03:46:51.819Z,99.32
2022-11-20T03:47:51.871Z,99.32
2022-11-20T03:48:52.376Z,99.32
2022-11-20T03:49:52.479Z,99.43
2022-11-20T03:50:52.525Z,99.32
2022-11-20T03:51:53.688Z,99.22
2022-11-20T03:52:52.753Z,99.22
2022-11-20T03:53:52.923Z,99.01
2022-11-20T03:54:53.097Z,99.01
2022-11-20T03:55:53.384Z,99.11
2022-11-20T03:56:53.462Z,99.11
2022-11-20T03:57:54.487Z,99.11
2022-11-20T03:58:53.687Z,99.11
2022-11-20T03:59:53.915Z,98.91
2022-11-20T04:00:53.978Z,98.91
2022-11-20T04:01:54.203Z,99.01
2022-11-20T04:02:54.271Z,99.32
2022-11-20T04:03:54.436Z,99.22
2022-11-20T04:04:54.633Z,99.11
2022-11-20T04:05:54.813Z,99.01
2022-11-20T04:06:55.024Z,98.80
2022-11-20T04:07:55.185Z,98.80
2022-11-20T04:08:55.441Z,98.80
2022-11-20T04:09:55.610Z,98.91
2022-11-20T04:10:55.666Z,98.91
2022-11-20T04:11:55.850Z,98.91
2022-11-20T04:12:56.021Z,99.01
2022-11-20T04:13:56.196Z,99.01
2022-11-20T04:14:56.369Z,99.11
2022-11-20T04:15:56.524Z,99.01
2022-11-20T04:16:56.717Z,99.01
2022-11-20T04:17:56.890Z,98.91
2022-11-20T04:18:57.078Z,98.80
2022-11-20T04:19:57.248Z,98.80
2022-11-20T04:20:57.432Z,98.91
2022-11-20T04:21:57.618Z,99.01
2022-11-20T04:22:57.805Z,98.91
2022-11-20T04:23:57.987Z,98.91
2022-11-20T04:24:58.175Z,98.91
2022-11-20T04:25:58.356Z,98.91
2022-11-20T04:26:58.564Z,98.80
2022-11-20T04:27:58.725Z,98.91
2022-11-20T04:28:58.924Z,98.91
2022-11-20T04:29:59.107Z,98.59
2022-11-20T04:30:59.292Z,98.59
2022-11-20T04:31:59.480Z,98.69
2022-11-20T04:32:59.659Z,98.80
2022-11-20T04:33:59.829Z,98.80
2022-11-20T04:35:00.002Z,98.80
2022-11-20T04:36:00.162Z,98.59
2022-11-20T04:37:00.356Z,98.59
2022-11-20T04:38:00.522Z,98.69
2022-11-20T04:39:00.714Z,98.59
2022-11-20T04:40:00.886Z,98.59
2022-11-20T04:41:01.071Z,98.59
2022-11-20T04:42:01.287Z,98.80
2022-11-20T04:43:01.442Z,98.91
2022-11-20T04:44:01.610Z,98.91
2022-11-20T04:45:01.800Z,98.80
2022-11-20T04:46:02.007Z,98.59
2022-11-20T04:47:02.166Z,98.59
2022-11-20T04:48:02.337Z,98.49
2022-11-20T04:49:02.520Z,98.38
2022-11-20T04:50:02.735Z,98.38
2022-11-20T04:51:02.812Z,98.38
2022-11-20T04:52:03.047Z,98.49
2022-11-20T04:53:03.107Z,98.69
2022-11-20T04:54:03.279Z,98.69
2022-11-20T04:55:03.454Z,98.69
2022-11-20T04:56:03.617Z,98.69
2022-11-20T04:57:03.815Z,98.59
2022-11-20T04:58:03.983Z,98.69
2022-11-20T04:59:04.156Z,98.69
2022-11-20T05:00:04.312Z,98.91
2022-11-20T05:01:04.424Z,98.80
2022-11-20T05:02:04.646Z,98.80
2022-11-20T05:03:04.724Z,98.59
2022-11-20T05:04:04.902Z,98.69
2022-11-20T05:05:05.080Z,98.80
2022-11-20T05:06:05.270Z,98.91
2022-11-20T05:07:05.529Z,99.01
2022-11-20T05:08:05.590Z,99.01
2022-11-20T05:09:05.773Z,99.01
2022-11-20T05:10:05.929Z,98.91
2022-11-20T05:11:06.100Z,98.91
2022-11-20T05:12:06.270Z,99.11
2022-11-20T05:13:06.441Z,99.22
2022-11-20T05:14:06.613Z,99.11
2022-11-20T05:15:06.909Z,99.22
2022-11-20T05:16:06.886Z,99.11
2022-11-20T05:17:07.042Z,98.97
2022-11-20T05:18:07.209Z,98.97
2022-11-20T05:19:07.391Z,99.07
2022-11-20T05:20:07.556Z,99.07
2022-11-20T05:21:07.740Z,98.97
2022-11-20T05:22:07.932Z,98.97
2022-11-20T05:23:08.108Z,99.18
2022-11-20T05:24:08.280Z,99.18
2022-11-20T05:25:08.456Z,98.97
2022-11-20T05:26:08.632Z,98.97
2022-11-20T05:27:08.804Z,98.97
2022-11-20T05:28:08.964Z,98.97
2022-11-20T05:29:09.141Z,98.86
2022-11-20T05:30:09.317Z,98.65
2022-11-20T05:31:09.520Z,98.75
2022-11-20T05:32:09.684Z,98.65
2022-11-20T05:33:09.840Z,98.86
2022-11-20T05:34:10.013Z,98.75
2022-11-20T05:35:10.177Z,98.65
2022-11-20T05:36:10.365Z,98.75
2022-11-20T05:37:10.530Z,98.65
2022-11-20T05:38:10.711Z,98.55
2022-11-20T05:39:10.889Z,98.75
2022-11-20T05:40:11.070Z,98.75
2022-11-20T05:41:11.262Z,98.75
2022-11-20T05:42:11.457Z,98.75
2022-11-20T05:43:11.608Z,98.75
2022-11-20T05:44:11.778Z,98.86
2022-11-20T05:45:11.942Z,98.75
2022-11-20T05:46:12.111Z,98.75
2022-11-20T05:47:12.291Z,98.75
2022-11-20T05:48:12.460Z,98.65
2022-11-20T05:49:12.626Z,98.65
2022-11-20T05:50:12.796Z,98.71
2022-11-20T05:51:12.957Z,98.71
2022-11-20T05:52:13.976Z,98.82
2022-11-20T05:53:13.214Z,98.71
2022-11-20T05:54:13.376Z,98.50
2022-11-20T05:55:14.533Z,98.61
2022-11-20T05:56:13.737Z,98.55
2022-11-20T05:57:13.895Z,98.44
2022-11-20T05:58:14.147Z,98.55
2022-11-20T05:59:14.226Z,98.39
2022-11-20T06:00:14.432Z,98.34
2022-11-20T06:01:14.614Z,98.34
2022-11-20T06:02:14.829Z,98.34
2022-11-20T06:03:15.006Z,98.24
2022-11-20T06:04:15.214Z,98.24
2022-11-20T06:05:15.402Z,98.02
2022-11-20T06:06:15.601Z,98.13
2022-11-20T06:07:15.852Z,98.34
2022-11-20T06:08:15.951Z,98.44
2022-11-20T06:09:16.148Z,98.44
2022-11-20T06:10:16.337Z,98.55
2022-11-20T06:11:16.531Z,98.34
2022-11-20T06:12:16.739Z,98.34
2022-11-20T06:13:16.949Z,98.34
2022-11-20T06:14:17.133Z,98.34
2022-11-20T06:15:17.346Z,98.34
2022-11-20T06:16:17.433Z,98.44
2022-11-20T06:17:17.604Z,98.44
2022-11-20T06:18:17.783Z,98.34
2022-11-20T06:19:17.966Z,98.44
2022-11-20T06:20:18.149Z,98.34
2022-11-20T06:21:18.382Z,98.02
2022-11-20T06:22:18.423Z,98.02
2022-11-20T06:23:18.594Z,98.02
2022-11-20T06:24:18.785Z,98.13
2022-11-20T06:25:18.950Z,98.02
2022-11-20T06:26:19.126Z,98.02
2022-11-20T06:27:19.305Z,98.13
2022-11-20T06:28:19.475Z,98.02
2022-11-20T06:29:19.992Z,98.02
2022-11-20T06:30:19.770Z,98.13
2022-11-20T06:31:19.931Z,98.13
2022-11-20T06:32:20.110Z,97.92
2022-11-20T06:33:20.268Z,98.02
2022-11-20T06:34:20.453Z,98.13
2022-11-20T06:35:20.620Z,98.02
2022-11-20T06:36:20.800Z,97.81
2022-11-20T06:37:20.969Z,97.71
2022-11-20T06:38:21.146Z,97.61
2022-11-20T06:39:21.614Z,97.50
2022-11-20T06:40:21.497Z,97.61
2022-11-20T06:41:21.722Z,97.71
2022-11-20T06:42:21.787Z,97.71
2022-11-20T06:43:21.948Z,97.61
2022-11-20T06:44:22.126Z,97.61
2022-11-20T06:45:22.295Z,97.39
2022-11-20T06:46:22.475Z,97.39
2022-11-20T06:47:22.685Z,97.50
2022-11-20T06:48:22.881Z,97.61
2022-11-20T06:49:23.438Z,97.61
2022-11-20T06:50:23.200Z,97.61
2022-11-20T06:51:23.378Z,97.50
2022-11-20T06:52:23.543Z,97.61
2022-11-20T06:53:23.732Z,97.61
2022-11-20T06:54:23.903Z,97.61
2022-11-20T06:55:24.092Z,97.29
2022-11-20T06:56:24.282Z,97.19
2022-11-20T06:57:24.451Z,97.19
2022-11-20T06:58:24.640Z,97.19
2022-11-20T06:59:24.864Z,97.29
2022-11-20T07:00:25.033Z,97.39
2022-11-20T07:01:25.360Z,97.29
2022-11-20T07:02:25.445Z,97.39
2022-11-20T07:03:25.669Z,97.50
2022-11-20T07:04:25.786Z,97.29
2022-11-20T07:05:25.858Z,97.19
2022-11-20T07:06:26.073Z,97.19
2022-11-20T07:07:26.159Z,97.08
2022-11-20T07:08:26.336Z,97.19
2022-11-20T07:09:26.891Z,97.08
2022-11-20T07:10:27.691Z,97.19
2022-11-20T07:11:26.895Z,97.19
2022-11-20T07:12:26.961Z,97.08
2022-11-20T07:13:27.171Z,96.88
2022-11-20T07:14:27.355Z,96.88
2022-11-20T07:15:27.557Z,96.88
2022-11-20T07:16:27.714Z,96.98
2022-11-20T07:17:27.909Z,97.08
2022-11-20T07:18:28.199Z,97.08
2022-11-20T07:19:28.407Z,96.88
2022-11-20T07:20:28.421Z,96.88
2022-11-20T07:21:28.492Z,97.08
2022-11-20T07:22:28.679Z,96.88
2022-11-20T07:23:28.870Z,96.77
2022-11-20T07:24:29.060Z,96.77
2022-11-20T07:25:29.251Z,96.66
2022-11-20T07:26:29.420Z,96.88
2022-11-20T07:27:29.611Z,96.66
2022-11-20T07:28:29.861Z,96.35
2022-11-20T07:29:29.914Z,96.14
2022-11-20T07:30:30.099Z,96.45
2022-11-20T07:31:30.268Z,96.45
2022-11-20T07:32:30.473Z,96.88
2022-11-20T07:33:30.641Z,96.88
2022-11-20T07:34:30.806Z,96.98
2022-11-20T07:35:30.967Z,96.88
2022-11-20T07:36:31.145Z,96.88
2022-11-20T07:37:31.302Z,96.88
2022-11-20T07:38:31.526Z,96.66
2022-11-20T07:39:31.577Z,96.66
2022-11-20T07:40:31.753Z,96.66
2022-11-20T07:41:31.925Z,96.66
2022-11-20T07:42:32.123Z,96.45
2022-11-20T07:43:37.137Z,96.56
2022-11-20T07:44:33.454Z,96.45
2022-11-20T07:45:32.636Z,96.45
2022-11-20T07:46:32.812Z,96.45
2022-11-20T07:47:33.715Z,96.35
2022-11-20T07:48:33.121Z,95.87
2022-11-20T07:49:33.291Z,95.83
2022-11-20T07:50:33.490Z,96.04
2022-11-20T07:51:33.711Z,96.14
2022-11-20T07:52:33.788Z,95.93
2022-11-20T07:53:33.930Z,95.72
2022-11-20T07:54:34.118Z,95.83
2022-11-20T07:55:34.296Z,95.83
2022-11-20T07:56:34.480Z,95.83
2022-11-20T07:57:34.650Z,95.51
2022-11-20T07:58:34.834Z,95.31
2022-11-20T07:59:35.988Z,95.20
2022-11-20T08:00:35.324Z,95.31
2022-11-20T08:01:35.387Z,95.41
2022-11-20T08:02:35.585Z,95.62
2022-11-20T08:03:35.758Z,95.31
2022-11-20T08:04:35.935Z,95.20
2022-11-20T08:05:36.107Z,95.31
2022-11-20T08:06:36.324Z,94.89
2022-11-20T08:07:36.419Z,95.31
2022-11-20T08:08:41.420Z,94.99
2022-11-20T08:09:37.615Z,95.09
2022-11-20T08:10:36.802Z,95.09
2022-11-20T08:11:37.011Z,95.41
2022-11-20T08:12:37.184Z,95.41
2022-11-20T08:13:37.352Z,95.41
2022-11-20T08:14:37.533Z,95.31
2022-11-20T08:15:37.712Z,94.99
2022-11-20T08:16:37.920Z,94.78
2022-11-20T08:17:37.972Z,94.99
2022-11-20T08:18:38.172Z,95.09
2022-11-20T08:19:38.346Z,94.99
2022-11-20T08:20:38.525Z,94.95
2022-11-20T08:21:38.733Z,94.84
2022-11-20T08:22:38.900Z,95.15
2022-11-20T08:23:39.113Z,94.84
2022-11-20T08:24:39.304Z,94.95
2022-11-20T08:25:39.498Z,94.64
2022-11-20T08:26:39.687Z,94.42
2022-11-20T08:27:39.933Z,94.70
2022-11-20T08:28:40.135Z,94.49
2022-11-20T08:29:40.298Z,94.49
2022-11-20T08:30:40.327Z,94.49
2022-11-20T08:31:40.494Z,94.17
2022-11-20T08:32:40.681Z,94.17
2022-11-20T08:33:42.187Z,94.38
2022-11-20T08:34:41.016Z,94.17
2022-11-20T08:35:41.176Z,94.07
2022-11-20T08:36:41.355Z,93.86
2022-11-20T08:37:41.528Z,94.07
2022-11-20T08:38:41.737Z,94.27
2022-11-20T08:39:41.784Z,94.17
2022-11-20T08:40:42.004Z,94.38
2022-11-20T08:41:42.083Z,94.49
2022-11-20T08:42:42.357Z,94.59
2022-11-20T08:43:42.453Z,94.70
2022-11-20T08:44:49.195Z,94.59
2022-11-20T08:45:42.671Z,94.80
2022-11-20T08:46:42.981Z,94.70
2022-11-20T08:47:43.142Z,94.59
2022-11-20T08:48:43.232Z,94.49
2022-11-20T08:49:43.419Z,94.59
2022-11-20T08:50:43.502Z,94.70
2022-11-20T08:51:43.679Z,94.80
2022-11-20T08:52:43.858Z,94.59
2022-11-20T08:53:44.048Z,94.70
2022-11-20T08:54:44.225Z,95.01
2022-11-20T08:55:44.382Z,94.90
2022-11-20T08:56:44.574Z,95.01
2022-11-20T08:57:49.529Z,94.59
2022-11-20T08:59:16.110Z,94.38
2022-11-20T09:00:05.047Z,94.59
2022-11-20T09:00:46.193Z,94.49
2022-11-20T09:01:45.249Z,94.27
2022-11-20T09:02:45.435Z,94.27
2022-11-20T09:03:45.604Z,94.49
2022-11-20T09:04:45.793Z,94.65
2022-11-20T09:05:45.959Z,94.44
2022-11-20T09:06:46.178Z,94.02
2022-11-20T09:07:46.232Z,94.65
2022-11-20T09:08:46.430Z,94.44
2022-11-20T09:09:58.724Z,93.92
2022-11-20T09:10:47.770Z,93.82
2022-11-20T09:11:46.945Z,93.50
2022-11-20T09:12:47.114Z,94.02
2022-11-20T09:13:47.361Z,93.71
2022-11-20T09:14:52.204Z,93.61
2022-11-20T09:15:48.526Z,93.65
2022-11-20T09:16:47.692Z,94.13
2022-11-20T09:17:47.838Z,93.82
2022-11-20T09:18:54.097Z,93.92
2022-11-20T09:19:49.144Z,94.13
2022-11-20T09:20:48.387Z,93.92
2022-11-20T09:21:48.443Z,93.92
2022-11-20T09:22:55.631Z,93.65
2022-11-20T09:23:49.385Z,93.76
2022-11-20T09:24:48.762Z,93.76
2022-11-20T09:25:51.594Z,93.76
2022-11-20T09:26:49.093Z,93.96
2022-11-20T09:27:49.270Z,94.07
2022-11-20T09:28:52.858Z,94.38
2022-11-20T09:29:50.579Z,94.59
2022-11-20T09:30:49.742Z,94.59
2022-11-20T09:31:49.915Z,94.38
2022-11-20T09:32:50.100Z,94.38
2022-11-20T09:33:50.280Z,93.96
2022-11-20T09:34:50.441Z,94.17
2022-11-20T09:35:50.638Z,94.49
2022-11-20T09:36:50.803Z,94.17
2022-11-20T09:37:50.967Z,93.96
2022-11-20T09:38:51.147Z,94.07
2022-11-20T09:39:51.352Z,93.96
2022-11-20T09:40:51.516Z,94.07
2022-11-20T09:41:51.692Z,94.13
2022-11-20T09:42:51.921Z,94.34
2022-11-20T09:43:51.976Z,93.92
2022-11-20T09:44:52.148Z,93.71
2022-11-20T09:45:52.325Z,93.40
2022-11-20T09:46:52.495Z,93.19
2022-11-20T09:47:52.678Z,93.08
2022-11-20T09:48:52.834Z,93.08
2022-11-20T09:49:53.026Z,93.19
2022-11-20T09:50:53.190Z,93.08
2022-11-20T09:51:53.367Z,92.98
2022-11-20T09:52:53.541Z,92.98
2022-11-20T09:53:53.724Z,92.88
2022-11-20T09:54:53.888Z,93.08
2022-11-20T09:55:54.071Z,93.29
2022-11-20T09:56:54.237Z,92.88
2022-11-20T09:57:54.419Z,93.19
2022-11-20T09:58:54.603Z,92.66
2022-11-20T09:59:54.789Z,92.66
2022-11-20T10:00:54.978Z,92.66
2022-11-20T10:01:55.127Z,92.88
2022-11-20T10:02:55.301Z,92.98
2022-11-20T10:03:55.491Z,93.25
2022-11-20T10:04:55.647Z,92.25
2022-11-20T10:05:55.836Z,92.35
2022-11-20T10:07:17.175Z,92.66
2022-11-20T10:07:57.212Z,92.56
2022-11-20T10:08:56.274Z,92.66
2022-11-20T10:09:56.510Z,92.77
2022-11-20T10:10:56.559Z,93.08
2022-11-20T10:11:56.736Z,93.19
2022-11-20T10:12:56.905Z,93.08
2022-11-20T10:13:57.077Z,92.66
2022-11-20T10:14:57.245Z,92.88
2022-11-20T10:15:57.443Z,93.19
2022-11-20T10:16:57.615Z,92.98
2022-11-20T10:17:57.797Z,93.08
2022-11-20T10:18:57.975Z,93.19
2022-11-20T10:19:58.154Z,93.61
2022-11-20T10:20:58.312Z,93.19
2022-11-20T10:21:58.482Z,92.88
2022-11-20T10:22:58.642Z,92.88
2022-11-20T10:23:58.837Z,93.08
2022-11-20T10:24:58.998Z,93.29
2022-11-20T10:25:59.167Z,93.29
2022-11-20T10:26:59.325Z,93.40
2022-11-20T10:27:59.490Z,93.61
2022-11-20T10:29:02.421Z,93.40
2022-11-20T10:30:00.788Z,93.35
2022-11-20T10:30:59.943Z,93.25
2022-11-20T10:32:00.095Z,93.04
2022-11-20T10:33:00.258Z,93.15
2022-11-20T10:34:21.022Z,93.25
2022-11-20T10:35:01.534Z,92.94
2022-11-20T10:36:00.721Z,92.83
2022-11-20T10:37:00.912Z,92.52
2022-11-20T10:38:00.969Z,92.52
2022-11-20T10:39:01.126Z,92.31
2022-11-20T10:40:01.295Z,92.83
2022-11-20T10:41:01.459Z,92.73
2022-11-20T10:42:01.672Z,92.63
2022-11-20T10:43:01.705Z,92.90
2022-11-20T10:44:01.891Z,92.79
2022-11-20T10:45:05.698Z,92.02
2022-11-20T10:46:03.138Z,91.54
2022-11-20T10:47:02.288Z,91.43
2022-11-20T10:48:02.442Z,91.39
2022-11-20T10:49:02.630Z,91.71
2022-11-20T10:50:02.803Z,91.29
2022-11-20T10:51:02.947Z,91.35
2022-11-20T10:52:03.108Z,90.56
2022-11-20T10:53:03.271Z,90.35
2022-11-20T10:54:03.455Z,90.10
2022-11-20T10:55:03.597Z,90.31
2022-11-20T10:56:03.756Z,89.89
2022-11-20T10:57:03.912Z,89.72
2022-11-20T10:58:04.088Z,90.52
2022-11-20T10:59:04.238Z,90.10
2022-11-20T11:00:04.400Z,89.58
2022-11-20T11:01:04.604Z,89.89
2022-11-20T11:02:04.717Z,89.78
2022-11-20T11:03:04.746Z,89.78
2022-11-20T11:04:04.901Z,89.37
2022-11-20T11:05:05.490Z,89.32
2022-11-20T11:06:05.220Z,88.49
2022-11-20T11:07:05.399Z,88.81
2022-11-20T11:08:05.543Z,89.01
2022-11-20T11:09:05.694Z,88.49
2022-11-20T11:10:05.850Z,88.35
2022-11-20T11:11:05.986Z,87.73
2022-11-20T11:12:07.352Z,87.73
2022-11-20T11:13:06.193Z,87.52
2022-11-20T11:14:06.351Z,87.58
2022-11-20T11:15:06.482Z,86.85
2022-11-20T11:16:06.620Z,87.12
2022-11-20T11:17:06.758Z,86.50
2022-11-20T11:18:06.891Z,86.29
2022-11-20T11:19:07.043Z,86.50
2022-11-20T11:20:07.175Z,85.77
2022-11-20T11:21:07.285Z,85.63
2022-11-20T11:22:07.401Z,85.00
2022-11-20T11:23:07.524Z,85.11
2022-11-20T11:24:34.737Z,84.90
2022-11-20T11:25:08.711Z,84.59
2022-11-20T11:26:07.807Z,84.38
2022-11-20T11:27:10.140Z,85.21
2022-11-20T11:28:07.993Z,84.80
2022-11-20T11:29:08.090Z,84.73
2022-11-20T11:30:08.189Z,84.83
2022-11-20T11:31:08.297Z,85.19
2022-11-20T11:32:08.428Z,85.39
2022-11-20T11:33:08.510Z,85.39
2022-11-20T11:34:08.618Z,86.33
2022-11-20T11:35:08.718Z,86.37
2022-11-20T11:36:08.817Z,86.43
2022-11-20T11:37:08.896Z,86.16
2022-11-20T11:38:09.002Z,86.47
2022-11-20T11:39:09.112Z,86.96
2022-11-20T11:40:23.929Z,87.06
2022-11-20T11:41:10.364Z,86.85
2022-11-20T11:42:09.471Z,86.79
2022-11-20T11:43:09.528Z,87.10
2022-11-20T11:44:09.675Z,87.62
2022-11-20T11:45:09.744Z,87.41
2022-11-20T11:46:09.864Z,88.08
2022-11-20T11:47:09.968Z,88.49
2022-11-20T11:48:10.083Z,89.32
2022-11-20T11:49:10.215Z,89.54
2022-11-20T11:50:10.334Z,89.54
2022-11-20T11:51:10.459Z,89.43
2022-11-20T11:52:10.582Z,89.43
2022-11-20T11:53:10.714Z,89.43
2022-11-20T11:54:10.858Z,89.32
2022-11-20T11:55:11.901Z,89.32
2022-11-20T11:56:11.131Z,89.95
2022-11-20T11:57:11.260Z,89.75
2022-11-20T11:58:11.394Z,89.54
2022-11-20T11:59:11.531Z,89.64
2022-11-20T12:00:11.765Z,89.54
2022-11-20T12:01:11.760Z,90.26
2022-11-20T12:02:11.936Z,90.26
2022-11-20T12:03:12.052Z,90.06
2022-11-20T12:04:12.194Z,89.85
2022-11-20T12:05:12.330Z,90.06
2022-11-20T12:06:12.469Z,90.26
2022-11-20T12:07:38.898Z,90.06
2022-11-20T12:08:13.737Z,89.50
2022-11-20T12:09:12.895Z,89.29
2022-11-20T12:10:12.927Z,89.18
2022-11-20T12:11:13.066Z,88.98
2022-11-20T12:12:13.227Z,89.18
2022-11-20T12:13:13.363Z,89.56
2022-11-20T12:14:13.539Z,88.83
2022-11-20T12:15:13.684Z,89.04
2022-11-20T12:16:13.826Z,89.04
2022-11-20T12:17:13.955Z,88.83
2022-11-20T12:18:14.096Z,88.73
2022-11-20T12:19:14.242Z,87.99
2022-11-20T12:20:14.373Z,87.58
2022-11-20T12:21:14.522Z,86.96
2022-11-20T12:22:14.725Z,86.85
2022-11-20T12:23:14.792Z,87.48
2022-11-20T12:24:14.962Z,87.79
2022-11-20T12:25:15.096Z,86.96
2022-11-20T12:26:15.228Z,86.54
2022-11-20T12:27:15.368Z,86.85
2022-11-20T12:28:15.506Z,87.06
2022-11-20T12:29:15.661Z,87.48
2022-11-20T12:30:15.816Z,87.54
2022-11-20T12:31:15.960Z,87.02
2022-11-20T12:32:16.098Z,86.29
2022-11-20T12:33:16.247Z,86.50
2022-11-20T12:34:16.411Z,87.54
2022-11-20T12:35:16.582Z,86.71
2022-11-20T12:36:16.736Z,86.71
2022-11-20T12:37:16.858Z,86.60
2022-11-20T12:38:17.008Z,86.81
2022-11-20T12:39:17.147Z,86.75
2022-11-20T12:40:17.318Z,87.06
2022-11-20T12:41:17.458Z,86.85
2022-11-20T12:42:17.650Z,86.96
2022-11-20T12:43:17.791Z,87.02
2022-11-20T12:44:17.999Z,86.75
2022-11-20T12:45:18.050Z,87.27
2022-11-20T12:46:18.195Z,87.06
2022-11-20T12:47:18.337Z,86.43
2022-11-20T12:48:18.486Z,86.65
2022-11-20T12:49:18.644Z,87.06
2022-11-20T12:50:18.813Z,87.37
2022-11-20T12:51:18.957Z,87.16
2022-11-20T12:52:19.102Z,87.48
2022-11-20T12:53:19.258Z,87.68
2022-11-20T12:54:19.466Z,88.42